Time;durP1;ratioP1;P1;durP2;ratioP2;P2;SDS_P1;SDS_P2;PMS_P1;PMS_P2;Temp;Humidity;BMP_temperature;BMP_pressure;BME280_temperature;BME280_humidity;BME280_pressure;Samples;Min_cycle;Max_cycle;Signal;HPM_P1;HPM_P2
2023/03/01 00:01:11;;;;;;;27.13;16.75;;;;;;;0.21;51.71;98910.59;10376047;28;20479;-80
2023/03/01 00:06:33;;;;;;;28.90;17.40;;;;;;;0.16;51.25;98911.31;10389199;28;20068;-79
2023/03/01 00:11:53;;;;;;;28.38;16.27;;;;;;;0.19;51.20;98907.59;10389342;28;20065;-79
2023/03/01 00:17:14;;;;;;;34.35;17.58;;;;;;;0.12;52.43;98910.06;10389192;28;20068;-80
2023/03/01 00:22:38;;;;;;;32.58;17.25;;;;;;;0.09;52.10;98909.03;10388754;28;20490;-80
2023/03/01 00:27:59;;;;;;;31.20;18.10;;;;;;;0.04;51.63;98912.53;10388874;28;20399;-80
2023/03/01 00:33:20;;;;;;;33.08;17.63;;;;;;;-0.02;52.65;98898.78;10358911;28;20454;-79
2023/03/01 00:38:43;;;;;;;37.28;17.10;;;;;;;-0.05;53.27;98899.78;10388497;28;20049;-80
2023/03/01 00:44:04;;;;;;;34.10;18.20;;;;;;;-0.12;53.04;98886.53;10387878;28;20048;-79
2023/03/01 00:49:27;;;;;;;29.98;16.60;;;;;;;-0.13;53.14;98881.53;10373940;28;20034;-79
2023/03/01 00:54:52;;;;;;;28.13;15.95;;;;;;;-0.13;52.01;98887.03;10374588;28;20049;-80
2023/03/01 01:00:13;;;;;;;27.37;16.63;;;;;;;-0.21;53.11;98886.75;10387493;28;20041;-79
2023/03/01 01:05:34;;;;;;;32.25;18.55;;;;;;;-0.26;53.14;98879.25;10387274;28;20288;-79
2023/03/01 01:10:55;;;;;;;28.25;16.42;;;;;;;-0.29;53.73;98880.22;10373659;28;20057;-79
2023/03/01 01:16:17;;;;;;;29.65;17.50;;;;;;;-0.32;53.55;98865.50;10387198;28;20072;-79
2023/03/01 01:21:38;;;;;;;29.70;17.00;;;;;;;-0.36;53.59;98865.00;10386944;28;20045;-79
2023/03/01 01:26:59;;;;;;;24.20;16.08;;;;;;;-0.38;53.76;98859.25;10373011;28;20037;-79
2023/03/01 01:32:21;;;;;;;27.38;17.17;;;;;;;-0.40;52.70;98852.75;10386977;28;20056;-79
2023/03/01 01:37:41;;;;;;;30.75;17.98;;;;;;;-0.47;53.21;98854.00;10400666;28;20042;-79
2023/03/01 01:43:20;;;;;;;27.23;16.50;;;;;;;-0.55;53.61;98852.97;10373387;28;20091;-80
2023/03/01 01:48:46;;;;;;;32.22;17.02;;;;;;;-0.57;53.88;98855.44;10386646;28;20483;-79
2023/03/01 01:54:18;;;;;;;29.45;17.73;;;;;;;-0.66;53.71;98847.44;10373349;28;20046;-79
2023/03/01 01:59:39;;;;;;;31.90;17.90;;;;;;;-0.70;53.61;98857.88;10387491;28;20049;-79
2023/03/01 02:05:36;;;;;;;30.75;16.92;;;;;;;-0.83;54.17;98854.81;10385390;28;20500;-79
2023/03/01 02:10:59;;;;;;;30.63;17.95;;;;;;;-0.90;54.16;98840.31;10407763;28;20073;-79
2023/03/01 02:16:20;;;;;;;35.88;19.20;;;;;;;-0.94;55.29;98839.81;10393494;28;20065;-78
2023/03/01 02:21:53;;;;;;;29.83;17.38;;;;;;;-0.96;54.82;98830.59;10391675;28;20383;-79
2023/03/01 02:27:16;;;;;;;29.75;16.50;;;;;;;-0.95;54.98;98821.88;10393560;28;20046;-80
2023/03/01 02:32:37;;;;;;;31.90;17.15;;;;;;;-0.98;55.19;98816.59;10406892;28;20103;-79
2023/03/01 02:38:00;;;;;;;30.08;17.10;;;;;;;-0.98;55.50;98824.81;10406608;28;20451;-80
2023/03/01 02:43:23;;;;;;;32.73;16.70;;;;;;;-1.00;55.22;98825.31;10392931;28;20056;-79
2023/03/01 02:48:46;;;;;;;32.65;17.48;;;;;;;-1.00;55.91;98817.09;10392277;28;20049;-79
2023/03/01 02:54:19;;;;;;;29.40;16.10;;;;;;;-1.02;56.14;98830.56;10392393;28;20377;-79
2023/03/01 02:59:40;;;;;;;31.60;16.55;;;;;;;-1.06;55.91;98821.81;10405748;28;20467;-79
2023/03/01 03:05:09;;;;;;;27.73;16.73;;;;;;;-1.07;56.28;98820.28;10392066;28;20061;-79
2023/03/01 03:10:32;;;;;;;31.52;17.20;;;;;;;-1.07;55.99;98819.53;10390908;28;20056;-78
2023/03/01 03:15:53;;;;;;;33.85;17.85;;;;;;;-1.11;55.71;98819.78;10377666;28;20088;-79
2023/03/01 03:21:13;;;;;;;27.33;15.48;;;;;;;-1.12;56.18;98823.00;10391143;28;20037;-79
2023/03/01 03:26:34;;;;;;;30.90;17.17;;;;;;;-1.16;56.43;98815.00;10391089;28;20042;-78
2023/03/01 03:31:55;;;;;;;30.55;16.42;;;;;;;-1.13;56.28;98805.81;10390768;28;20053;-80
2023/03/01 03:42:56;;;;;;;28.67;15.50;;;;;;;-1.24;56.63;98795.56;10392630;28;20048;-80
2023/03/01 03:48:18;;;;;;;33.75;16.55;;;;;;;-1.28;57.01;98777.84;10390315;28;20038;-79
2023/03/01 03:53:39;;;;;;;34.55;18.05;;;;;;;-1.33;57.02;98781.31;10376541;28;20045;-79
2023/03/01 03:59:00;;;;;;;32.10;17.70;;;;;;;-1.42;57.57;98781.50;10389483;28;20484;-79
2023/03/01 04:04:21;;;;;;;30.98;16.42;;;;;;;-1.47;57.28;98794.66;10389791;28;20076;-79
2023/03/01 04:09:43;;;;;;;30.52;15.82;;;;;;;-1.47;57.21;98793.91;10389317;28;20041;-78
2023/03/01 04:15:12;;;;;;;29.45;16.30;;;;;;;-1.49;57.75;98791.66;10389496;28;20041;-79
2023/03/01 04:20:34;;;;;;;29.02;16.05;;;;;;;-1.53;57.55;98787.66;10416204;28;20046;-78
2023/03/01 04:25:56;;;;;;;32.13;17.48;;;;;;;-1.58;58.04;98780.88;10402172;28;20403;-79
2023/03/01 04:31:18;;;;;;;31.73;17.23;;;;;;;-1.60;58.37;98780.63;10375063;28;20049;-79
2023/03/01 04:36:39;;;;;;;28.92;16.60;;;;;;;-1.58;58.33;98786.34;10401923;28;20053;-79
2023/03/01 04:42:00;;;;;;;30.05;16.73;;;;;;;-1.59;58.48;98795.81;10401867;28;20046;-79
2023/03/01 04:47:21;;;;;;;29.42;16.55;;;;;;;-1.60;58.32;98802.53;10374147;28;20049;-79
2023/03/01 04:52:42;;;;;;;30.05;16.73;;;;;;;-1.59;58.81;98795.06;10387873;28;20476;-79
2023/03/01 04:58:03;;;;;;;29.55;15.98;;;;;;;-1.59;58.73;98798.56;10387332;28;20083;-79
2023/03/01 05:03:24;;;;;;;32.05;16.98;;;;;;;-1.63;59.13;98797.28;10411454;28;20064;-80
2023/03/01 05:08:45;;;;;;;31.58;16.38;;;;;;;-1.67;58.95;98792.00;10402923;28;20044;-80
2023/03/01 05:14:06;;;;;;;29.45;15.73;;;;;;;-1.70;59.27;98801.22;10415679;28;20045;-80
2023/03/01 05:19:27;;;;;;;29.02;14.93;;;;;;;-1.73;58.89;98793.97;10414845;28;20103;-79
2023/03/01 05:24:48;;;;;;;27.17;15.73;;;;;;;-1.80;59.66;98784.22;10414991;28;20367;-79
2023/03/01 05:30:17;;;;;;;30.92;17.02;;;;;;;-1.75;59.67;98780.00;10401276;28;20049;-80
2023/03/01 05:35:38;;;;;;;31.83;17.50;;;;;;;-1.74;59.71;98767.81;10433521;28;20395;-80
2023/03/01 05:40:58;;;;;;;31.77;17.55;;;;;;;-1.68;59.11;98765.88;10422971;28;20048;-80
2023/03/01 05:46:20;;;;;;;34.28;17.98;;;;;;;-1.62;59.47;98779.63;10424248;28;20044;-79
2023/03/01 05:51:41;;;;;;;32.00;17.15;;;;;;;-1.59;59.91;98776.66;10422890;28;20091;-80
2023/03/01 05:57:02;;;;;;;31.23;17.58;;;;;;;-1.36;59.95;98782.25;10368487;28;20099;-80
2023/03/01 06:02:23;;;;;;;29.15;15.63;;;;;;;-0.62;59.57;98777.38;10388285;28;20057;-79
2023/03/01 06:07:45;;;;;;;30.55;16.70;;;;;;;0.43;58.19;98767.00;10368109;28;20049;-80
2023/03/01 06:13:07;;;;;;;33.17;19.23;;;;;;;1.72;57.65;98763.78;10375500;28;20041;-81
2023/03/01 06:18:28;;;;;;;33.85;19.83;;;;;;;3.21;56.39;98783.50;10379439;28;20479;-81
2023/03/01 06:23:51;;;;;;;33.35;19.92;;;;;;;4.64;54.93;98789.47;10389784;28;20055;-80
2023/03/01 06:29:14;;;;;;;38.72;21.20;;;;;;;6.03;52.86;98794.22;10379832;28;20045;-81
2023/03/01 06:34:37;;;;;;;32.38;20.48;;;;;;;7.40;50.07;98786.16;10380469;28;20176;-80
2023/03/01 06:39:58;;;;;;;31.92;20.85;;;;;;;8.42;44.06;98792.25;10379410;28;20048;-80
2023/03/01 06:45:19;;;;;;;35.40;20.42;;;;;;;8.31;49.12;98771.81;10379517;28;20145;-81
2023/03/01 06:50:40;;;;;;;31.08;20.92;;;;;;;8.26;48.82;98769.19;10403074;28;20049;-81
2023/03/01 06:56:01;;;;;;;37.85;22.13;;;;;;;11.00;46.37;98769.31;10379466;28;20116;-80
2023/03/01 07:01:22;;;;;;;30.92;21.30;;;;;;;12.55;43.81;98779.50;10405131;28;20049;-78
2023/03/01 07:06:43;;;;;;;31.00;20.88;;;;;;;13.46;41.04;98789.09;10423404;28;20147;-78
2023/03/01 07:12:04;;;;;;;31.92;20.52;;;;;;;14.72;39.78;98794.41;10427056;28;20059;-78
2023/03/01 07:17:25;;;;;;;27.52;20.02;;;;;;;15.12;37.49;98798.47;10438523;28;20548;-79
2023/03/01 07:22:45;;;;;;;26.92;19.65;;;;;;;16.08;30.97;98807.47;10439096;28;20467;-78
2023/03/01 07:28:06;;;;;;;25.83;19.02;;;;;;;17.13;33.01;98804.72;10423992;28;20497;-78
2023/03/01 07:33:27;;;;;;;29.23;20.02;;;;;;;16.95;30.95;98809.28;10447384;28;20056;-78
2023/03/01 07:38:48;;;;;;;26.58;19.13;;;;;;;17.81;26.30;98804.41;10417505;28;20041;-78
2023/03/01 07:44:09;;;;;;;27.88;19.05;;;;;;;18.79;28.48;98804.00;10431606;28;20045;-80
2023/03/01 07:49:30;;;;;;;26.98;19.77;;;;;;;19.30;26.95;98804.53;10416395;28;20044;-78
2023/03/01 07:54:50;;;;;;;22.92;18.33;;;;;;;19.33;25.63;98805.34;10419009;28;20521;-79
2023/03/01 08:00:12;;;;;;;24.08;19.08;;;;;;;20.13;24.13;98810.66;10413182;28;20045;-80
2023/03/01 08:05:32;;;;;;;24.70;18.80;;;;;;;21.09;22.88;98804.34;10429149;28;20080;-80
2023/03/01 08:10:56;;;;;;;24.15;18.45;;;;;;;21.75;21.95;98809.91;10390764;28;20041;-80
2023/03/01 08:16:17;;;;;;;22.40;18.70;;;;;;;22.00;20.92;98800.97;10389173;28;20042;-80
2023/03/01 08:21:38;;;;;;;27.13;18.63;;;;;;;19.73;21.25;98796.03;10402181;28;20443;-80
2023/03/01 08:26:59;;;;;;;23.83;17.92;;;;;;;20.49;20.41;98788.22;10388756;28;20117;-80
2023/03/01 08:32:19;;;;;;;22.85;18.40;;;;;;;24.88;15.49;98785.69;10374343;28;20045;-79
2023/03/01 08:37:41;;;;;;;26.77;19.55;;;;;;;25.61;14.64;98790.47;10401863;28;20408;-80
2023/03/01 08:43:01;;;;;;;26.95;19.10;;;;;;;25.07;15.05;98796.22;10396787;28;20048;-80
2023/03/01 08:48:22;;;;;;;25.08;19.40;;;;;;;20.80;16.38;98788.19;10408696;28;20061;-80
2023/03/01 08:53:43;;;;;;;20.23;17.02;;;;;;;18.56;19.07;98785.88;10387368;28;20561;-80
2023/03/01 08:59:08;;;;;;;24.38;18.88;;;;;;;17.64;19.98;98780.13;10387305;28;20038;-78
2023/03/01 09:04:29;;;;;;;27.27;18.80;;;;;;;16.84;21.36;98766.38;10385791;28;20467;-78
2023/03/01 09:09:53;;;;;;;20.20;17.73;;;;;;;17.73;22.50;98761.59;10386470;28;20165;-85
2023/03/01 09:15:13;;;;;;;23.98;18.00;;;;;;;18.49;22.83;98755.81;10417848;28;20087;-82
2023/03/01 09:20:34;;;;;;;21.35;18.00;;;;;;;19.91;21.11;98759.34;10415432;28;20079;-82
2023/03/01 09:25:55;;;;;;;22.60;15.85;;;;;;;22.41;17.03;98751.38;10416278;28;20042;-85
2023/03/01 09:31:16;;;;;;;;;;;;;;;25.27;14.64;98756.75;10373832;28;20041;-84
2023/03/01 09:36:36;;;;;;;;;;;;;;;28.86;12.49;98755.47;10387060;28;20018;-86
2023/03/01 09:42:02;;;;;;;15.82;13.40;;;;;;;30.20;11.42;98745.06;10399937;28;19928;-85
2023/03/01 09:47:43;;;;;;;16.48;12.68;;;;;;;31.61;8.73;98746.16;10372865;28;20053;-83
2023/03/01 09:53:06;;;;;;;13.88;12.02;;;;;;;32.56;10.31;98743.78;10399836;28;20515;-84
2023/03/01 09:58:38;;;;;;;16.20;12.43;;;;;;;33.71;9.06;98727.13;10386215;28;20468;-84
2023/03/01 10:04:04;;;;;;;18.52;12.50;;;;;;;33.56;8.11;98727.25;10410215;28;20142;-84
2023/03/01 10:09:26;;;;;;;14.18;11.75;;;;;;;32.13;7.80;98738.84;10412996;28;20037;-83
2023/03/01 10:14:46;;;;;;;16.00;12.43;;;;;;;32.14;8.42;98711.44;10413154;28;20407;-84
2023/03/01 10:20:18;;;;;;;13.70;11.63;;;;;;;32.16;8.12;98705.66;10400697;28;20044;-84
2023/03/01 10:25:54;;;;;;;15.10;12.65;;;;;;;32.68;8.14;98700.38;10436946;28;20049;-82
2023/03/01 10:31:22;;;;;;;13.10;11.70;;;;;;;32.72;7.57;98698.19;10447639;28;20041;-82
2023/03/01 10:36:44;;;;;;;17.58;11.77;;;;;;;33.51;7.67;98688.22;10433943;28;20044;-81
2023/03/01 10:42:06;;;;;;;12.50;11.20;;;;;;;32.98;7.62;98705.28;10432683;28;20048;-80
2023/03/01 10:47:27;;;;;;;14.48;11.48;;;;;;;32.53;7.45;98691.09;10420223;28;20048;-80
2023/03/01 10:52:59;;;;;;;13.23;11.48;;;;;;;32.28;7.38;98678.88;10397227;28;20480;-79
2023/03/01 10:58:21;;;;;;;13.57;11.27;;;;;;;29.82;8.88;98676.50;10366834;28;20088;-75
2023/03/01 11:03:42;;;;;;;15.43;12.38;;;;;;;25.27;9.68;98659.59;10378067;28;20123;-78
2023/03/01 11:09:15;;;;;;;15.05;12.23;;;;;;;21.28;13.30;98658.22;10404155;28;20060;-77
2023/03/01 11:14:36;;;;;;;19.58;13.20;;;;;;;18.00;14.84;98654.34;10432499;28;20045;-77
2023/03/01 11:20:14;;;;;;;21.50;14.88;;;;;;;15.27;18.71;98639.84;10418169;28;20043;-78
2023/03/01 11:25:36;;;;;;;20.63;14.80;;;;;;;15.25;19.17;98625.63;10432045;28;20106;-76
2023/03/01 11:31:02;;;;;;;19.97;15.63;;;;;;;14.43;20.91;98631.59;10418246;28;20049;-77
2023/03/01 11:36:40;;;;;;;22.70;16.13;;;;;;;14.34;20.22;98623.97;10446602;28;20619;-78
2023/03/01 11:42:13;;;;;;;23.10;16.80;;;;;;;14.49;20.76;98618.00;10424651;28;20037;-80
2023/03/01 11:47:52;;;;;;;20.10;15.05;;;;;;;14.15;21.66;98607.97;10428651;28;20075;-79
2023/03/01 11:53:32;;;;;;;23.27;15.57;;;;;;;14.34;20.35;98607.13;10442446;28;20044;-79
2023/03/01 11:58:59;;;;;;;24.80;16.23;;;;;;;13.80;21.42;98602.13;10456158;28;20052;-79
2023/03/01 12:04:26;;;;;;;25.58;16.55;;;;;;;13.20;23.82;98593.72;10453686;28;20072;-80
2023/03/01 12:10:09;;;;;;;20.77;15.45;;;;;;;13.18;23.01;98579.56;10424418;28;20068;-82
2023/03/01 12:15:43;;;;;;;25.67;17.08;;;;;;;12.55;23.55;98572.25;10404722;28;20052;-80
2023/03/01 12:21:19;;;;;;;21.05;14.88;;;;;;;12.50;24.07;98564.88;10448069;28;20045;-81
2023/03/01 12:26:53;;;;;;;22.33;15.32;;;;;;;12.16;24.45;98569.44;10386809;28;20037;-81
2023/03/01 12:32:24;;;;;;;19.92;15.05;;;;;;;11.86;24.63;98561.53;10399877;28;20037;-81
2023/03/01 12:38:10;;;;;;;29.38;18.08;;;;;;;11.79;25.24;98562.38;10392403;28;20049;-80
2023/03/01 12:43:46;;;;;;;24.48;17.17;;;;;;;11.66;25.93;98558.66;10427309;28;20049;-81
2023/03/01 12:49:11;;;;;;;22.67;16.20;;;;;;;11.50;26.92;98553.91;10407964;28;20452;-82
2023/03/01 12:54:33;;;;;;;28.08;16.88;;;;;;;11.52;26.62;98540.81;10413987;28;20545;-82
2023/03/01 13:00:11;;;;;;;26.27;16.77;;;;;;;11.70;26.36;98533.06;10401852;28;20521;-82
2023/03/01 13:05:36;;;;;;;26.10;17.30;;;;;;;11.81;26.17;98537.38;10399572;28;20084;-81
2023/03/01 13:11:04;;;;;;;20.25;15.15;;;;;;;11.70;26.10;98533.81;10414087;28;20048;-81
2023/03/01 13:16:28;;;;;;;23.27;16.13;;;;;;;11.63;26.61;98517.88;10392436;28;20049;-82
2023/03/01 13:21:51;;;;;;;21.08;15.43;;;;;;;11.47;27.11;98522.22;10408998;28;20034;-81
2023/03/01 13:27:22;;;;;;;23.38;15.63;;;;;;;11.38;26.68;98508.97;10397810;28;20545;-82
2023/03/01 13:32:43;;;;;;;22.10;14.73;;;;;;;11.14;27.06;98507.84;10393665;28;20041;-79
2023/03/01 13:38:42;;;;;;;21.13;13.95;;;;;;;10.99;27.82;98502.47;10422762;28;20048;-77
2023/03/01 13:44:17;;;;;;;21.95;15.25;;;;;;;10.77;27.57;98501.47;10412112;28;20040;-80
2023/03/01 13:49:43;;;;;;;25.55;15.85;;;;;;;10.75;28.45;98501.31;10356633;28;20046;-81
2023/03/01 13:55:18;;;;;;;23.27;15.45;;;;;;;10.57;28.51;98509.72;10356949;28;20476;-81
2023/03/01 14:00:39;;;;;;;24.97;15.87;;;;;;;10.40;28.55;98509.72;10375821;28;20428;-81
2023/03/01 14:06:06;;;;;;;23.08;15.48;;;;;;;10.41;28.84;98500.03;10347165;28;20069;-81
2023/03/01 14:12:01;;;;;;;26.58;15.23;;;;;;;10.32;29.33;98493.06;10376726;28;20053;-80
2023/03/01 14:17:32;;;;;;;24.80;15.93;;;;;;;10.13;29.51;98501.25;10365395;28;20161;-81
2023/03/01 14:22:55;;;;;;;23.35;14.60;;;;;;;10.12;30.03;98499.78;10359933;28;20507;-81
2023/03/01 14:28:26;;;;;;;25.95;15.38;;;;;;;10.03;30.31;98500.44;10360093;28;20400;-80
2023/03/01 14:33:53;;;;;;;22.10;14.80;;;;;;;9.75;29.67;98493.28;10346621;28;20066;-81
2023/03/01 14:39:25;;;;;;;24.48;16.17;;;;;;;9.57;31.18;98491.78;10358472;28;20069;-80
2023/03/01 14:44:47;;;;;;;24.90;15.05;;;;;;;9.56;30.47;98474.31;10344117;28;20042;-80
2023/03/01 14:50:19;;;;;;;28.20;15.00;;;;;;;9.59;30.66;98478.75;10344482;28;20046;-80
2023/03/01 14:55:41;;;;;;;27.58;15.93;;;;;;;9.59;31.17;98472.44;10359171;28;20050;-80
2023/03/01 15:01:03;;;;;;;22.48;13.05;;;;;;;9.49;31.45;98468.81;10342988;28;20045;-80
2023/03/01 15:06:24;;;;;;;23.92;14.73;;;;;;;9.36;31.71;98478.94;10363149;28;20106;-80
2023/03/01 15:11:46;;;;;;;23.02;14.82;;;;;;;9.24;31.33;98482.75;10356402;28;20408;-80
2023/03/01 15:17:20;;;;;;;21.30;14.93;;;;;;;9.09;31.63;98484.34;10355664;28;20136;-80
2023/03/01 15:22:48;;;;;;;25.60;15.68;;;;;;;8.86;32.88;98490.03;10367523;28;20041;-80
2023/03/01 15:28:17;;;;;;;26.27;15.90;;;;;;;8.71;32.79;98484.56;10341106;28;20048;-79
2023/03/01 15:33:46;;;;;;;23.40;14.20;;;;;;;8.27;33.48;98486.94;10340278;28;20504;-80
2023/03/01 15:39:36;;;;;;;23.83;15.52;;;;;;;7.97;34.36;98496.88;10339341;28;20045;-79
2023/03/01 15:45:20;;;;;;;27.65;14.15;;;;;;;7.99;33.93;98499.06;10409317;28;20097;-79
2023/03/01 15:50:43;;;;;;;23.42;14.23;;;;;;;8.02;34.10;98493.16;10413363;28;20065;-80
2023/03/01 15:56:07;;;;;;;25.40;13.80;;;;;;;7.92;33.92;98489.47;10400535;28;20041;-78
2023/03/01 16:01:28;;;;;;;21.05;13.40;;;;;;;7.71;34.50;98492.44;10418756;28;20037;-77
2023/03/01 16:06:54;;;;;;;20.70;13.02;;;;;;;7.60;34.39;98476.16;10417763;28;20556;-77
2023/03/01 16:12:15;;;;;;;22.38;12.90;;;;;;;7.39;34.60;98470.06;10424745;28;20128;-79
2023/03/01 16:17:36;;;;;;;22.13;13.73;;;;;;;7.26;35.01;98482.13;10375221;28;20095;-80
2023/03/01 16:23:01;;;;;;;27.90;16.70;;;;;;;7.10;37.00;98478.56;10363485;28;20049;-80
2023/03/01 16:28:22;;;;;;;24.13;15.25;;;;;;;6.96;35.42;98477.28;10386665;28;20136;-80
2023/03/01 16:33:49;;;;;;;26.25;15.80;;;;;;;6.83;36.25;98482.97;10430789;28;20049;-80
2023/03/01 16:39:11;;;;;;;23.33;14.90;;;;;;;6.69;36.42;98481.66;10446895;28;20087;-79
2023/03/01 16:44:32;;;;;;;26.95;15.75;;;;;;;6.58;36.76;98486.25;10431829;28;20110;-77
2023/03/01 16:49:53;;;;;;;24.55;16.85;;;;;;;6.42;36.91;98486.75;10410976;28;20041;-79
2023/03/01 16:55:15;;;;;;;29.42;17.02;;;;;;;6.30;37.09;98478.75;10358187;28;20498;-76
2023/03/01 17:00:36;;;;;;;25.25;16.13;;;;;;;6.17;37.23;98467.78;10416692;28;20134;-76
2023/03/01 17:06:01;;;;;;;24.30;15.77;;;;;;;6.05;37.18;98463.84;10414864;28;20075;-76
2023/03/01 17:11:22;;;;;;;34.72;17.50;;;;;;;6.02;38.08;98462.91;10397839;28;20487;-78
2023/03/01 17:16:44;;;;;;;28.73;17.42;;;;;;;5.98;38.04;98473.63;10374480;28;20096;-77
2023/03/01 17:22:06;;;;;;;27.15;16.85;;;;;;;5.94;38.69;98484.31;10373844;28;20048;-76
2023/03/01 17:27:27;;;;;;;27.13;17.08;;;;;;;5.87;38.87;98482.19;10373781;28;20037;-76
2023/03/01 17:32:49;;;;;;;29.80;16.17;;;;;;;5.77;38.72;98489.53;10372783;28;20539;-78
2023/03/01 17:38:09;;;;;;;27.67;16.40;;;;;;;5.75;39.22;98484.53;10373643;28;20395;-76
2023/03/01 17:43:33;;;;;;;26.98;16.27;;;;;;;5.72;39.01;98482.13;10372796;28;20511;-77
2023/03/01 17:48:54;;;;;;;26.83;14.70;;;;;;;5.63;39.05;98485.38;10400579;28;20041;-75
2023/03/01 17:54:15;;;;;;;24.58;14.88;;;;;;;5.62;39.57;98489.44;10378642;28;20045;-77
2023/03/01 17:59:36;;;;;;;24.98;15.65;;;;;;;5.52;39.20;98480.13;10400127;28;20713;-75
2023/03/01 18:04:57;;;;;;;27.92;16.55;;;;;;;5.47;40.00;98479.72;10385868;28;20053;-76
2023/03/01 18:10:19;;;;;;;28.90;14.90;;;;;;;5.42;40.18;98464.00;10386314;28;20046;-77
2023/03/01 18:15:40;;;;;;;31.08;16.80;;;;;;;5.37;40.26;98473.19;10372255;28;20041;-77
2023/03/01 18:21:01;;;;;;;27.08;16.13;;;;;;;5.26;40.33;98470.69;10413815;28;20095;-77
2023/03/01 18:26:23;;;;;;;28.35;16.77;;;;;;;5.18;40.89;98461.59;10386062;28;20046;-75
2023/03/01 18:31:44;;;;;;;28.90;17.58;;;;;;;5.12;40.49;98461.00;10386087;28;20046;-74
2023/03/01 18:37:06;;;;;;;31.15;17.88;;;;;;;5.07;41.14;98464.63;10372460;28;20049;-74
2023/03/01 18:42:29;;;;;;;36.50;19.33;;;;;;;4.96;41.06;98471.19;10388743;28;20042;-74
2023/03/01 18:47:50;;;;;;;37.72;21.55;;;;;;;4.77;41.69;98468.59;10392655;28;20049;-74
2023/03/01 18:53:11;;;;;;;37.83;20.75;;;;;;;4.74;41.71;98466.19;10406399;28;20052;-75
2023/03/01 18:58:32;;;;;;;36.60;20.73;;;;;;;4.68;42.21;98458.00;10379127;28;20557;-76
2023/03/01 19:03:53;;;;;;;30.95;18.67;;;;;;;4.63;42.55;98466.41;10405886;28;20068;-76
2023/03/01 19:09:14;;;;;;;32.20;18.38;;;;;;;4.52;42.31;98467.41;10392229;28;20103;-74
2023/03/01 19:14:36;;;;;;;34.58;19.10;;;;;;;4.48;42.77;98472.53;10391981;28;20053;-74
2023/03/01 19:19:57;;;;;;;32.72;19.27;;;;;;;4.43;42.95;98487.19;10391648;28;20045;-78
2023/03/01 19:25:18;;;;;;;33.95;18.70;;;;;;;4.40;43.66;98488.28;10404945;28;20037;-78
2023/03/01 19:30:39;;;;;;;32.25;17.67;;;;;;;4.35;43.63;98489.16;10391102;28;20041;-78
2023/03/01 19:36:00;;;;;;;32.35;17.40;;;;;;;4.31;43.89;98492.22;10391267;28;20049;-80
2023/03/01 19:41:21;;;;;;;35.60;18.23;;;;;;;4.24;43.28;98492.88;10390621;28;20042;-79
2023/03/01 19:46:42;;;;;;;32.10;18.10;;;;;;;4.15;43.37;98490.53;10376841;28;20052;-79
2023/03/01 19:52:03;;;;;;;32.08;18.02;;;;;;;4.11;44.18;98496.41;10404395;28;20115;-79
2023/03/01 19:57:24;;;;;;;32.25;17.67;;;;;;;4.06;44.09;98488.25;10403093;28;20117;-79
2023/03/01 20:02:45;;;;;;;33.53;17.85;;;;;;;4.06;43.74;98488.97;10389655;28;20055;-78
2023/03/01 20:08:08;;;;;;;29.85;16.90;;;;;;;4.08;44.15;98480.91;10373356;28;20061;-78
2023/03/01 20:13:29;;;;;;;30.88;17.23;;;;;;;4.00;44.67;98486.31;10402940;28;20472;-78
2023/03/01 20:18:49;;;;;;;31.13;18.83;;;;;;;3.97;45.18;98483.88;10388920;28;20454;-77
2023/03/01 20:24:10;;;;;;;31.75;19.27;;;;;;;3.95;44.97;98480.91;10402707;28;20052;-77
2023/03/01 20:29:31;;;;;;;32.25;18.42;;;;;;;3.85;44.60;98497.16;10434883;28;20037;-79
2023/03/01 20:34:55;;;;;;;34.78;19.52;;;;;;;3.80;45.50;98500.03;10403183;28;20072;-79
2023/03/01 20:40:17;;;;;;;35.70;20.17;;;;;;;3.71;46.03;98503.94;10416387;28;20045;-79
2023/03/01 20:45:38;;;;;;;34.53;18.95;;;;;;;3.63;45.77;98506.59;10403043;28;20557;-79
2023/03/01 20:51:00;;;;;;;30.77;18.75;;;;;;;3.55;45.47;98497.44;10405133;28;20483;-79
2023/03/01 20:56:21;;;;;;;29.95;18.60;;;;;;;3.50;45.72;98503.09;10415470;28;20056;-79
2023/03/01 21:01:54;;;;;;;30.90;17.73;;;;;;;3.40;45.73;98497.22;10419782;28;20071;-79
2023/03/01 21:07:15;;;;;;;33.25;19.00;;;;;;;3.34;46.35;98496.56;10387556;28;20060;-79
2023/03/01 21:12:36;;;;;;;31.73;18.35;;;;;;;3.29;46.55;98508.47;10414928;28;20049;-79
2023/03/01 21:17:56;;;;;;;35.05;19.73;;;;;;;3.23;46.68;98507.81;10414495;28;20399;-79
2023/03/01 21:23:18;;;;;;;34.55;18.80;;;;;;;3.14;46.93;98490.38;10427933;28;20045;-79
2023/03/01 21:28:39;;;;;;;31.50;17.83;;;;;;;3.13;47.51;98496.41;10414469;28;20060;-79
2023/03/01 21:34:04;;;;;;;34.63;19.08;;;;;;;3.10;47.47;98497.47;10441766;28;20098;-79
2023/03/01 21:39:27;;;;;;;37.63;20.40;;;;;;;3.04;47.25;98488.53;10414076;28;20045;-81
2023/03/01 21:44:48;;;;;;;48.13;27.98;;;;;;;2.94;47.53;98485.44;10428441;28;20052;-81
2023/03/01 21:50:10;;;;;;;43.08;23.65;;;;;;;2.91;48.14;98469.94;10413900;28;20079;-81
2023/03/01 21:55:32;;;;;;;34.72;20.25;;;;;;;2.84;48.36;98473.31;10427812;28;20045;-80
2023/03/01 22:00:55;;;;;;;35.65;19.95;;;;;;;2.79;48.14;98468.59;10418119;28;20041;-81
2023/03/01 22:06:37;;;;;;;35.75;18.55;;;;;;;2.76;48.45;98467.66;10370642;28;20088;-80
2023/03/01 22:12:00;;;;;;;31.85;17.13;;;;;;;2.70;48.65;98466.22;10376331;28;20045;-81
2023/03/01 22:17:36;;;;;;;35.15;19.23;;;;;;;2.57;49.16;98470.44;10377022;28;20507;-79
2023/03/01 22:23:01;;;;;;;36.72;20.13;;;;;;;2.54;49.19;98460.47;10384295;28;20052;-80
2023/03/01 22:28:44;;;;;;;34.70;18.73;;;;;;;2.46;49.45;98448.53;10373199;28;20056;-81
2023/03/01 22:34:13;;;;;;;38.28;20.13;;;;;;;2.44;49.74;98456.59;10373273;28;20046;-80
2023/03/01 22:39:34;;;;;;;34.70;18.30;;;;;;;2.43;51.17;98448.84;10378508;28;20076;-81
2023/03/01 22:44:55;;;;;;;34.28;18.80;;;;;;;2.38;49.51;98453.16;10369868;28;20044;-80
2023/03/01 22:50:16;;;;;;;36.40;20.13;;;;;;;2.38;49.50;98446.91;10360692;28;20113;-81
2023/03/01 22:55:37;;;;;;;37.65;20.67;;;;;;;2.37;50.20;98446.16;10338612;28;20078;-81
2023/03/01 23:00:58;;;;;;;41.78;21.00;;;;;;;2.39;50.27;98445.63;10336149;28;20472;-81
2023/03/01 23:06:19;;;;;;;40.97;21.15;;;;;;;2.34;50.18;98447.22;10371908;28;20057;-81
2023/03/01 23:11:40;;;;;;;38.88;20.27;;;;;;;2.26;50.27;98438.81;10388966;28;20037;-80
2023/03/01 23:17:01;;;;;;;40.53;20.95;;;;;;;2.18;51.01;98445.44;10381258;28;20057;-80
2023/03/01 23:22:23;;;;;;;42.70;22.17;;;;;;;2.17;51.06;98454.97;10383839;28;20042;-80
2023/03/01 23:27:43;;;;;;;39.35;20.70;;;;;;;2.11;50.62;98435.75;10390092;28;20041;-80
2023/03/01 23:33:04;;;;;;;38.35;20.88;;;;;;;2.06;51.05;98438.59;10391112;28;20053;-80
2023/03/01 23:38:26;;;;;;;37.28;20.42;;;;;;;1.97;50.94;98445.94;10405077;28;20045;-81
2023/03/01 23:43:48;;;;;;;36.67;19.20;;;;;;;1.92;51.34;98443.25;10377455;28;20484;-81
2023/03/01 23:49:10;;;;;;;39.42;21.60;;;;;;;1.88;51.25;98435.28;10377512;28;20041;-81
2023/03/01 23:54:31;;;;;;;36.90;20.42;;;;;;;1.84;51.42;98450.63;10377111;28;20057;-80
2023/03/01 23:59:52;;;;;;;39.92;19.88;;;;;;;1.78;52.38;98447.91;10390145;28;20453;-81
